Los Angeles (LAX/KLAX)

Information

Location
Los Angeles, CA
Local Time
16:26 / 4:26 pm
GMT Time
00:26 / 12:26 am
Gates
Unassigned
  • Traffic destined to KLAX is facing an average delay of 1 hour and 5 minutes due to WEATHER / WIND.
METAR KLAX 230006Z 06008KT 1SM R25R/3500V6000FT +RA BR SCT005 BKN008 OVC012 11/11 A2989 RMK AO2 P0022 T01110111 $
TAF KLAX 222353Z 2300/2406 11008G15KT 1 1/2SM +RA BR BKN007 OVC013 TEMPO 2300/2301 1/2SM +RA BKN004 FM230200 21005KT 4SM -RA BKN012 OVC025 FM230400 23020G30KT 6SM -RA BKN025 OVC050 FM230900 24015KT 4SM -SHRA BR BKN025 PROB30 2309/2315 4SM -TSRA OVC015CB FM231
  • No charts available